Time;durP1;ratioP1;P1;durP2;ratioP2;P2;SDS_P1;SDS_P2;PMS_P1;PMS_P2;Temp;Humidity;BMP_temperature;BMP_pressure;BME280_temperature;BME280_humidity;BME280_pressure;Samples;Min_cycle;Max_cycle;Signal;HPM_P1;HPM_P2
2022/12/09 00:01:31;;;;;;;88.30;47.60;;;;;;;1.64;86.43;98097.64;86408;1282;98996;-72
2022/12/09 00:03:33;;;;;;;78.30;45.00;;;;;;;1.65;86.20;98094.36;86413;1279;24192;-70
2022/12/09 00:05:38;;;;;;;76.40;40.90;;;;;;;1.63;86.24;98089.19;86336;1285;24263;-72
2022/12/09 00:07:39;;;;;;;82.90;40.80;;;;;;;1.64;86.28;98089.16;86330;1296;99593;-71
2022/12/09 00:09:40;;;;;;;71.80;40.50;;;;;;;1.65;86.28;98088.80;86281;1288;22622;-71
2022/12/09 00:11:42;;;;;;;75.00;39.40;;;;;;;1.65;86.50;98091.05;86264;1289;22615;-72
2022/12/09 00:13:48;;;;;;;72.20;37.60;;;;;;;1.65;86.22;98092.95;86195;1285;99354;-71
2022/12/09 00:15:49;;;;;;;69.10;38.80;;;;;;;1.63;86.48;98095.93;86344;1279;24255;-71
2022/12/09 00:17:51;;;;;;;74.50;38.40;;;;;;;1.62;86.27;98097.87;86309;1290;23050;-72
2022/12/09 00:19:52;;;;;;;68.50;39.30;;;;;;;1.62;86.20;98095.61;86254;1287;100144;-72
2022/12/09 00:21:53;;;;;;;67.30;39.20;;;;;;;1.64;86.50;98091.25;86244;1282;22550;-72
2022/12/09 00:23:56;;;;;;;66.50;36.70;;;;;;;1.65;86.58;98088.80;86319;1286;22531;-71
2022/12/09 00:25:57;;;;;;;62.60;36.10;;;;;;;1.65;86.24;98091.20;86375;1279;99373;-72
2022/12/09 00:27:58;;;;;;;64.50;37.00;;;;;;;1.65;86.50;98095.90;86263;1288;22510;-72
2022/12/09 00:29:59;;;;;;;65.00;37.00;;;;;;;1.66;86.41;98093.27;86399;1287;22521;-72
2022/12/09 00:32:00;;;;;;;;;;;;;;;1.67;86.60;98093.92;86311;1285;100535;-72
2022/12/09 00:34:05;;;;;;;61.60;36.70;;;;;;;1.68;86.61;98093.90;86371;1286;22685;-72
2022/12/09 00:36:09;;;;;;;72.10;38.50;;;;;;;1.69;86.57;98093.01;86446;1282;24381;-72
2022/12/09 00:38:10;;;;;;;63.20;36.30;;;;;;;1.70;86.44;98099.38;86210;1282;98503;-71
2022/12/09 00:40:12;;;;;;;71.20;36.40;;;;;;;1.71;86.46;98103.35;86391;1287;22494;-73
2022/12/09 00:42:13;;;;;;;65.10;38.30;;;;;;;1.71;86.31;98109.23;86209;1285;99733;-72
2022/12/09 00:44:14;;;;;;;70.30;38.70;;;;;;;1.72;86.61;98112.34;86406;1283;22590;-72
2022/12/09 00:46:15;;;;;;;67.80;38.80;;;;;;;1.72;86.17;98109.21;86314;1289;23303;-70
2022/12/09 00:48:16;;;;;;;;;;;;;;;1.73;86.27;98113.70;86338;1288;99596;-71
2022/12/09 00:50:17;;;;;;;71.00;39.00;;;;;;;1.73;86.58;98115.44;86343;1287;23078;-73
2022/12/09 00:52:18;;;;;;;70.80;40.60;;;;;;;1.73;86.17;98112.15;86375;1287;25398;-71
2022/12/09 00:54:19;;;;;;;65.80;41.40;;;;;;;1.71;86.03;98112.34;86250;1296;99597;-72
2022/12/09 00:56:22;;;;;;;68.50;39.60;;;;;;;1.68;86.13;98112.60;86345;1287;24286;-70
2022/12/09 00:58:24;;;;;;;73.00;40.00;;;;;;;1.68;86.48;98115.71;86400;1286;22683;-70
2022/12/09 01:00:25;;;;;;;69.90;35.70;;;;;;;1.69;86.39;98112.40;86255;1290;99616;-71
2022/12/09 01:02:26;;;;;;;63.50;35.00;;;;;;;1.70;86.33;98114.61;86453;1296;22493;-72
2022/12/09 01:04:27;;;;;;;57.70;34.80;;;;;;;1.71;86.32;98117.21;86143;1288;22457;-72
2022/12/09 01:06:28;;;;;;;68.60;34.70;;;;;;;1.72;86.25;98116.83;86237;1285;100177;-70
2022/12/09 01:08:29;;;;;;;63.70;35.50;;;;;;;1.72;86.38;98115.44;86332;1285;22505;-72
2022/12/09 01:10:33;;;;;;;68.70;35.50;;;;;;;1.73;86.37;98113.71;86332;1279;22621;-72
2022/12/09 01:12:36;;;;;;;67.80;34.60;;;;;;;1.73;86.12;98118.91;86210;1283;99802;-71
2022/12/09 01:14:37;;;;;;;62.40;35.20;;;;;;;1.73;86.10;98117.16;86257;1296;22496;-71
2022/12/09 01:16:38;;;;;;;61.60;35.20;;;;;;;1.73;86.36;98118.03;86244;1286;22599;-71
2022/12/09 01:18:39;;;;;;;59.00;35.40;;;;;;;1.73;86.53;98118.39;86419;1286;99587;-70
2022/12/09 01:20:40;;;;;;;63.20;35.10;;;;;;;1.73;86.28;98117.52;86346;1297;22769;-72
2022/12/09 01:22:41;;;;;;;60.40;31.60;;;;;;;1.72;86.36;98117.87;86308;1287;24264;-72
2022/12/09 01:24:43;;;;;;;57.60;33.20;;;;;;;1.69;86.18;98119.16;86276;1287;99898;-70
2022/12/09 01:26:44;;;;;;;;;;;;;;;1.67;85.97;98118.16;86352;1295;23989;-72
2022/12/09 01:28:49;;;;;;;61.20;31.80;;;;;;;1.66;86.29;98117.50;86381;1286;22562;-72
2022/12/09 01:30:50;;;;;;;57.00;33.20;;;;;;;1.67;86.20;98121.30;86258;1285;99599;-73
2022/12/09 01:32:52;;;;;;;52.10;30.30;;;;;;;1.67;86.49;98115.57;86318;1286;22671;-72
2022/12/09 01:34:53;;;;;;;56.90;30.60;;;;;;;1.68;86.41;98116.25;86296;1286;24297;-71
2022/12/09 01:36:54;;;;;;;;;;;;;;;1.68;86.19;98114.69;86232;1285;101499;-72
2022/12/09 01:38:57;;;;;;;60.50;31.70;;;;;;;1.68;86.16;98117.29;86349;1296;23012;-72
2022/12/09 01:40:58;;;;;;;52.30;30.50;;;;;;;1.68;86.32;98116.25;86440;1286;24306;-71
2022/12/09 01:42:59;;;;;;;52.60;30.40;;;;;;;1.68;86.20;98111.92;86120;1290;98754;-72
2022/12/09 01:45:18;;;;;;;58.10;30.80;;;;;;;1.69;86.35;98111.38;86173;1288;22442;-71
2022/12/09 01:47:21;;;;;;;55.70;31.10;;;;;;;1.69;86.32;98116.92;86384;1279;22600;-71
2022/12/09 01:49:27;;;;;;;59.20;31.00;;;;;;;1.69;86.42;98116.07;86235;1286;98317;-71
2022/12/09 01:51:28;;;;;;;55.80;30.70;;;;;;;1.69;86.42;98120.36;86247;1286;22484;-71
2022/12/09 01:53:36;;;;;;;54.20;29.50;;;;;;;1.71;86.65;98119.96;86347;1286;22613;-70
2022/12/09 01:55:38;;;;;;;56.20;30.10;;;;;;;1.70;86.58;98114.45;86249;1290;99391;-72
2022/12/09 01:57:40;;;;;;;51.70;28.70;;;;;;;1.70;86.55;98113.43;86330;1287;25276;-71
2022/12/09 01:59:42;;;;;;;;;;;;;;;1.69;86.50;98117.77;86335;1286;25291;-72
2022/12/09 02:01:48;;;;;;;60.10;32.10;;;;;;;1.67;86.41;98110.39;86221;1285;85459;-71
2022/12/09 02:03:50;;;;;;;58.60;31.30;;;;;;;1.67;86.50;98105.52;86269;1281;23379;-70
2022/12/09 02:05:52;;;;;;;58.50;35.10;;;;;;;1.67;86.10;98105.17;86454;1281;23853;-71
2022/12/09 02:07:53;;;;;;;;;;;;;;;1.69;86.32;98104.27;86143;1282;98946;-71
2022/12/09 02:09:55;;;;;;;62.10;31.80;;;;;;;1.69;86.27;98102.86;86176;1285;217552;-70
2022/12/09 02:12:11;;;;;;;50.80;30.20;;;;;;;1.71;86.34;98101.44;86397;1287;22615;-72
2022/12/09 02:14:22;;;;;;;62.10;33.20;;;;;;;1.70;86.51;98101.46;86294;1287;99956;-72
2022/12/09 02:16:26;;;;;;;55.20;30.70;;;;;;;1.69;86.30;98101.33;86300;1285;25353;-73
2022/12/09 02:18:33;;;;;;;52.30;31.80;;;;;;;1.68;86.45;98095.80;86075;1290;100558;-72
2022/12/09 02:20:44;;;;;;;54.50;31.70;;;;;;;1.68;86.58;98089.91;86315;1285;22589;-71
2022/12/09 02:22:59;;;;;;;55.50;31.40;;;;;;;1.67;86.12;98088.21;86316;1288;25345;-71
2022/12/09 02:25:03;;;;;;;54.70;31.70;;;;;;;1.67;86.49;98085.27;86186;1287;99429;-71
2022/12/09 02:27:16;;;;;;;58.70;31.00;;;;;;;1.67;86.20;98083.89;86365;1286;23513;-71
2022/12/09 02:29:22;;;;;;;55.20;32.30;;;;;;;1.66;86.19;98085.29;86293;1285;24240;-72
2022/12/09 02:31:39;;;;;;;56.80;31.00;;;;;;;1.65;86.07;98080.81;86247;1286;99453;-72
2022/12/09 02:34:14;;;;;;;62.60;32.20;;;;;;;1.65;86.43;98082.55;86154;1283;25148;-72
2022/12/09 02:36:19;;;;;;;57.30;30.80;;;;;;;1.66;86.36;98082.55;86412;1279;26017;-71
2022/12/09 02:38:24;;;;;;;58.30;31.00;;;;;;;1.64;86.32;98080.68;86248;1285;25051;-71
2022/12/09 02:40:35;;;;;;;52.30;29.70;;;;;;;1.63;86.22;98077.59;86190;1289;22525;-72
2022/12/09 02:42:38;;;;;;;60.30;31.80;;;;;;;1.65;86.34;98076.34;86179;1287;99735;-71
2022/12/09 02:44:40;;;;;;;61.80;32.70;;;;;;;1.66;86.35;98075.77;86278;1289;22557;-71
2022/12/09 02:46:43;;;;;;;57.80;31.80;;;;;;;1.68;86.43;98073.98;86290;1288;22868;-71
2022/12/09 02:48:50;;;;;;;57.20;32.10;;;;;;;1.69;86.62;98072.91;86056;1288;100213;-71
2022/12/09 02:50:53;;;;;;;54.70;32.20;;;;;;;1.68;86.18;98076.41;86328;1285;22530;-71
2022/12/09 02:52:58;;;;;;;55.90;31.30;;;;;;;1.66;85.98;98075.96;86263;1279;24032;-70
2022/12/09 02:55:02;;;;;;;58.40;33.50;;;;;;;1.64;86.08;98078.98;86328;1288;98319;-72
2022/12/09 02:57:13;;;;;;;53.40;34.00;;;;;;;1.62;86.56;98081.40;86531;1290;22567;-74
2022/12/09 02:59:14;;;;;;;51.50;31.30;;;;;;;1.63;86.20;98079.30;86322;1287;22623;-71
2022/12/09 03:01:35;;;;;;;68.10;35.30;;;;;;;1.64;86.24;98080.86;86264;1283;99664;-73
2022/12/09 03:03:37;;;;;;;61.30;34.30;;;;;;;1.65;86.19;98083.05;86323;1287;26041;-71
2022/12/09 03:05:38;;;;;;;58.90;33.30;;;;;;;1.67;86.43;98085.29;86306;1290;24418;-71
2022/12/09 03:07:39;;;;;;;;;;;;;;;1.68;86.30;98084.73;86359;1285;100169;-72
2022/12/09 03:09:43;;;;;;;64.40;34.00;;;;;;;1.68;86.46;98083.69;86347;1287;22480;-69
2022/12/09 03:11:46;;;;;;;65.30;37.00;;;;;;;1.69;86.67;98082.95;86219;1296;23038;-71
2022/12/09 03:14:30;;;;;;;61.40;36.50;;;;;;;1.69;86.53;98082.79;86207;1288;99943;-70
2022/12/09 03:16:44;;;;;;;63.80;35.80;;;;;;;1.67;86.35;98080.77;86211;1296;22535;-70
2022/12/09 03:18:50;;;;;;;63.80;38.40;;;;;;;1.66;86.33;98075.61;86260;1285;100619;-72
2022/12/09 03:20:53;;;;;;;66.90;37.80;;;;;;;1.64;86.41;98071.70;86374;1286;22497;-70
2022/12/09 03:22:59;;;;;;;61.00;36.00;;;;;;;1.61;86.30;98066.23;86303;1287;25511;-71
2022/12/09 03:25:24;;;;;;;61.10;35.30;;;;;;;1.59;86.38;98065.41;86295;1286;100094;-71
2022/12/09 03:27:31;;;;;;;62.00;35.20;;;;;;;1.58;86.38;98066.48;86186;1301;23195;-70
2022/12/09 03:29:36;;;;;;;59.90;33.50;;;;;;;1.56;86.13;98066.70;86154;1288;22494;-71
2022/12/09 03:31:38;;;;;;;62.80;35.40;;;;;;;1.54;86.20;98061.72;85926;1282;99402;-70
2022/12/09 03:33:46;;;;;;;62.90;35.10;;;;;;;1.52;86.45;98059.85;86247;1306;22898;-71
2022/12/09 03:35:55;;;;;;;61.00;35.50;;;;;;;1.53;86.50;98058.80;86226;1286;22489;-72
2022/12/09 03:37:59;;;;;;;67.20;37.60;;;;;;;1.53;86.29;98057.94;86258;1287;98537;-71
2022/12/09 03:40:01;;;;;;;66.80;36.90;;;;;;;1.53;86.54;98061.39;86238;1285;22478;-71
2022/12/09 03:42:12;;;;;;;63.20;37.90;;;;;;;1.56;86.74;98062.21;86134;1290;24468;-73
2022/12/09 03:44:18;;;;;;;;;;;;;;;1.57;86.50;98063.05;86020;1289;99692;-71
2022/12/09 03:46:20;;;;;;;70.70;37.50;;;;;;;1.57;86.43;98063.22;86237;1286;23908;-71
2022/12/09 03:48:22;;;;;;;63.10;38.70;;;;;;;1.59;86.53;98064.71;86013;1289;99604;-72
2022/12/09 03:50:28;;;;;;;68.40;38.40;;;;;;;1.60;86.86;98065.23;86093;1287;22753;-71
2022/12/09 03:52:52;;;;;;;77.30;41.90;;;;;;;1.61;86.38;98067.96;86351;1287;22504;-71
2022/12/09 03:55:25;;;;;;;70.10;42.00;;;;;;;1.61;87.02;98066.40;86105;1286;99984;-71
2022/12/09 03:57:28;;;;;;;76.20;43.80;;;;;;;1.60;86.72;98063.64;85644;1294;22483;-72
2022/12/09 03:59:33;;;;;;;72.00;40.70;;;;;;;1.60;86.75;98065.39;85526;1288;24289;-71
2022/12/09 04:01:34;;;;;;;75.80;40.20;;;;;;;1.60;86.66;98064.16;85698;1295;98575;-71
2022/12/09 04:03:37;;;;;;;71.40;41.40;;;;;;;1.57;86.63;98065.27;85647;1302;22465;-71
2022/12/09 04:05:38;;;;;;;68.10;39.60;;;;;;;1.55;86.61;98063.77;85760;1298;22480;-71
2022/12/09 04:07:39;;;;;;;74.20;40.60;;;;;;;1.54;86.49;98063.81;85683;1302;99399;-71
2022/12/09 04:09:40;;;;;;;73.80;40.90;;;;;;;1.52;86.58;98068.02;85732;1291;25286;-70
2022/12/09 04:11:41;;;;;;;86.60;42.20;;;;;;;1.51;86.50;98067.48;85471;1301;25372;-70
2022/12/09 04:13:42;;;;;;;69.20;40.90;;;;;;;1.50;86.57;98069.77;85637;1296;107058;-70
2022/12/09 04:15:43;;;;;;;66.80;39.40;;;;;;;1.49;86.54;98076.39;85580;1294;22525;-70
2022/12/09 04:17:44;;;;;;;60.10;36.60;;;;;;;1.45;86.55;98075.97;85631;1294;22562;-70
2022/12/09 04:19:46;;;;;;;65.10;36.90;;;;;;;1.40;86.26;98070.75;85700;1293;100628;-71
2022/12/09 04:21:47;;;;;;;67.20;39.80;;;;;;;1.38;86.51;98072.35;85891;1291;22490;-72
2022/12/09 04:23:48;;;;;;;69.40;40.70;;;;;;;1.38;86.37;98070.95;85876;1291;26033;-72
2022/12/09 04:25:49;;;;;;;70.20;39.80;;;;;;;1.39;86.48;98070.60;85593;1295;99390;-72
2022/12/09 04:27:50;;;;;;;63.90;38.10;;;;;;;1.40;86.72;98068.85;85539;1292;23262;-74
2022/12/09 04:29:51;;;;;;;66.50;38.40;;;;;;;1.38;86.56;98069.23;85680;1291;22546;-73
2022/12/09 04:31:52;;;;;;;61.10;36.20;;;;;;;1.36;86.71;98068.77;85681;1291;99035;-71
2022/12/09 04:33:53;;;;;;;59.20;37.00;;;;;;;1.32;86.57;98069.37;85716;1302;23473;-71
2022/12/09 04:35:54;;;;;;;64.90;36.30;;;;;;;1.27;86.46;98070.90;85965;1313;22515;-70
2022/12/09 04:37:55;;;;;;;64.80;36.90;;;;;;;1.24;86.35;98067.86;86207;1288;99479;-71
2022/12/09 04:39:57;;;;;;;68.90;38.20;;;;;;;1.20;86.67;98061.89;86309;1305;22454;-70
2022/12/09 04:41:58;;;;;;;62.10;37.50;;;;;;;1.22;86.77;98067.73;86573;1296;23091;-71
2022/12/09 04:44:00;;;;;;;63.90;37.50;;;;;;;1.21;86.67;98071.57;87136;1287;98595;-73
2022/12/09 04:46:04;;;;;;;72.10;36.90;;;;;;;1.22;86.52;98070.33;87716;1294;22519;-71
2022/12/09 04:48:05;;;;;;;61.10;36.00;;;;;;;1.21;86.48;98066.20;86256;1289;22545;-70
2022/12/09 04:50:06;;;;;;;64.50;35.50;;;;;;;1.21;86.47;98067.95;86223;1288;99778;-72
2022/12/09 04:52:07;;;;;;;69.80;40.20;;;;;;;1.18;86.53;98068.67;86240;1296;22489;-72
2022/12/09 04:54:12;;;;;;;69.70;38.50;;;;;;;1.17;86.56;98073.73;86369;1288;22457;-72
2022/12/09 04:56:20;;;;;;;67.80;37.80;;;;;;;1.15;86.51;98068.59;86118;1285;99281;-72
2022/12/09 04:58:21;;;;;;;64.50;38.70;;;;;;;1.12;86.56;98070.05;86103;1288;22561;-70
2022/12/09 05:00:22;;;;;;;66.40;39.60;;;;;;;1.10;86.31;98068.20;86036;1288;99827;-71
2022/12/09 05:02:23;;;;;;;;;;;;;;;1.08;86.59;98069.63;86196;1288;25349;-70
2022/12/09 05:04:24;;;;;;;60.90;36.80;;;;;;;1.06;86.49;98071.92;86064;1289;22473;-72
2022/12/09 05:06:25;;;;;;;61.60;38.40;;;;;;;1.04;86.37;98076.67;86075;1296;99662;-71
2022/12/09 05:08:26;;;;;;;69.40;37.40;;;;;;;1.02;86.62;98077.56;86027;1290;26541;-71
2022/12/09 05:10:27;;;;;;;59.70;36.00;;;;;;;1.01;86.72;98078.27;86158;1290;25362;-70
2022/12/09 05:12:28;;;;;;;70.40;38.50;;;;;;;0.99;86.52;98075.91;85971;1289;99855;-71
2022/12/09 05:14:29;;;;;;;68.70;38.00;;;;;;;0.97;86.18;98075.61;86128;1290;22536;-71
2022/12/09 05:16:30;;;;;;;73.20;41.60;;;;;;;0.96;86.51;98079.63;86078;1295;24448;-69
2022/12/09 05:18:31;;;;;;;71.90;41.60;;;;;;;0.96;86.61;98078.08;85847;1288;100275;-71
2022/12/09 05:20:32;;;;;;;60.20;37.90;;;;;;;0.95;86.82;98079.12;86208;1290;23306;-71
2022/12/09 05:22:33;;;;;;;62.90;39.40;;;;;;;0.94;86.65;98075.70;86216;1285;25386;-71
2022/12/09 05:24:34;;;;;;;60.90;38.80;;;;;;;0.92;86.77;98074.86;86121;1290;99802;-71
2022/12/09 05:26:35;;;;;;;63.60;36.80;;;;;;;0.91;86.56;98072.14;86467;1286;22789;-72
2022/12/09 05:28:37;;;;;;;61.00;36.10;;;;;;;0.85;86.42;98069.50;86806;1306;22497;-73
2022/12/09 05:30:38;;;;;;;56.80;36.50;;;;;;;0.80;86.43;98069.27;86633;1293;99496;-72
2022/12/09 05:32:41;;;;;;;58.80;36.60;;;;;;;0.78;86.69;98067.08;87024;1289;22509;-72
2022/12/09 05:34:42;;;;;;;54.60;34.80;;;;;;;0.77;86.61;98065.88;86981;1292;24266;-73
2022/12/09 05:36:43;;;;;;;58.80;33.30;;;;;;;0.70;86.41;98064.83;86783;1311;99737;-73
2022/12/09 05:38:44;;;;;;;55.70;32.50;;;;;;;0.63;86.59;98068.27;86947;1294;22637;-73
2022/12/09 05:40:45;;;;;;;62.40;36.40;;;;;;;0.56;86.57;98067.05;86719;1301;22607;-73
2022/12/09 05:42:46;;;;;;;60.10;34.10;;;;;;;0.53;86.17;98067.82;86680;1290;99979;-72
2022/12/09 05:44:47;;;;;;;60.60;34.40;;;;;;;0.48;86.25;98066.02;86746;1302;22774;-73
2022/12/09 05:46:48;;;;;;;71.60;37.00;;;;;;;0.43;86.27;98062.33;86827;1303;22491;-72
2022/12/09 05:48:49;;;;;;;57.20;32.90;;;;;;;0.41;86.41;98063.41;86770;1289;98445;-73
2022/12/09 05:51:00;;;;;;;58.40;33.60;;;;;;;0.38;86.37;98063.66;86624;1300;23353;-72
2022/12/09 05:53:02;;;;;;;62.50;34.40;;;;;;;0.31;86.39;98065.70;86633;1290;24379;-73
2022/12/09 05:55:04;;;;;;;;;;;;;;;0.25;86.29;98063.06;86786;1292;99019;-72
2022/12/09 05:57:05;;;;;;;62.60;33.90;;;;;;;0.17;86.31;98063.06;86905;1296;25285;-73
2022/12/09 05:59:06;;;;;;;;;;;;;;;0.11;86.05;98064.05;86928;1284;22555;-71
2022/12/09 06:01:08;;;;;;;67.60;37.40;;;;;;;0.04;86.10;98066.61;86792;1287;84273;-71
2022/12/09 06:03:09;;;;;;;63.90;37.70;;;;;;;-0.01;86.14;98064.30;86816;1295;22605;-72
2022/12/09 06:05:10;;;;;;;65.90;39.60;;;;;;;-0.06;86.13;98062.84;86776;1288;25301;-72
2022/12/09 06:07:11;;;;;;;69.20;39.40;;;;;;;-0.09;86.21;98062.57;86696;1286;102041;-72
2022/12/09 06:09:12;;;;;;;77.30;41.90;;;;;;;-0.11;86.06;98066.05;86570;1293;24939;-71
2022/12/09 06:11:17;;;;;;;75.60;42.10;;;;;;;-0.12;86.32;98070.39;86620;1292;23571;-73
2022/12/09 06:13:18;;;;;;;72.50;44.40;;;;;;;-0.12;86.31;98067.29;86491;1290;99117;-72
2022/12/09 06:15:19;;;;;;;76.50;44.90;;;;;;;-0.13;86.50;98068.86;86570;1288;22612;-72
2022/12/09 06:17:20;;;;;;;80.50;46.20;;;;;;;-0.17;86.51;98065.14;86491;1294;23543;-73
2022/12/09 06:19:21;;;;;;;82.20;48.40;;;;;;;-0.19;86.57;98070.85;86682;1294;98414;-72
2022/12/09 06:21:22;;;;;;;79.40;46.40;;;;;;;-0.19;86.32;98068.63;86709;1292;22874;-73
2022/12/09 06:23:23;;;;;;;71.00;42.30;;;;;;;-0.20;86.54;98066.73;86695;1290;22475;-72
2022/12/09 06:25:24;;;;;;;73.40;42.60;;;;;;;-0.23;86.20;98064.91;86673;1286;99786;-75
2022/12/09 06:27:25;;;;;;;97.50;47.00;;;;;;;-0.27;86.34;98071.36;86654;1288;22582;-77
2022/12/09 06:29:26;;;;;;;81.50;45.50;;;;;;;-0.29;86.32;98075.04;86836;1287;22931;-76
2022/12/09 06:31:28;;;;;;;69.10;42.70;;;;;;;-0.32;86.55;98077.66;86829;1289;98504;-75
2022/12/09 06:33:29;;;;;;;71.80;43.70;;;;;;;-0.32;86.35;98074.57;86931;1313;22541;-77
2022/12/09 06:35:30;;;;;;;83.00;46.30;;;;;;;-0.32;86.56;98076.80;86753;1313;22615;-74
2022/12/09 06:37:31;;;;;;;77.30;47.40;;;;;;;-0.33;86.39;98078.91;86956;1296;98425;-77
2022/12/09 06:39:32;;;;;;;;;;;;;;;-0.37;86.56;98083.63;87167;1280;23831;-77
2022/12/09 06:41:33;;;;;;;80.00;48.70;;;;;;;-0.41;86.34;98079.73;87082;1311;22442;-77
2022/12/09 06:43:35;;;;;;;76.10;46.80;;;;;;;-0.41;86.36;98078.86;86883;1287;100483;-77
2022/12/09 06:45:37;;;;;;;102.50;52.60;;;;;;;-0.40;86.62;98074.89;87163;1313;26014;-79
2022/12/09 06:47:40;;;;;;;118.50;52.00;;;;;;;-0.42;86.47;98085.80;87126;1288;22498;-78
2022/12/09 06:49:41;;;;;;;134.50;51.60;;;;;;;-0.44;86.56;98086.35;87018;1305;98693;-78
2022/12/09 06:51:43;;;;;;;119.20;52.30;;;;;;;-0.42;86.49;98076.16;86960;1314;23151;-79
2022/12/09 06:53:45;;;;;;;108.70;49.20;;;;;;;-0.41;86.57;98075.41;87094;1311;24435;-78
2022/12/09 06:55:47;;;;;;;113.60;50.10;;;;;;;-0.41;86.47;98076.13;87068;1296;98563;-78
2022/12/09 06:57:48;;;;;;;103.20;51.60;;;;;;;-0.41;86.66;98077.83;86977;1309;22513;-78
2022/12/09 06:59:51;;;;;;;104.90;57.50;;;;;;;-0.38;86.64;98079.17;87107;1287;22537;-78
2022/12/09 07:01:52;;;;;;;89.60;54.00;;;;;;;-0.35;86.92;98077.91;86935;1289;98855;-78
2022/12/09 07:03:55;;;;;;;107.80;55.90;;;;;;;-0.30;86.80;98075.91;87077;1292;22489;-78
2022/12/09 07:05:56;;;;;;;104.20;55.30;;;;;;;-0.27;86.86;98078.77;87187;1294;25850;-78
2022/12/09 07:07:57;;;;;;;223.80;57.80;;;;;;;-0.22;86.91;98077.64;87050;1287;98659;-76
2022/12/09 07:10:02;;;;;;;223.20;66.00;;;;;;;-0.17;86.97;98082.23;87173;1311;22520;-76
2022/12/09 07:12:03;;;;;;;281.80;60.50;;;;;;;-0.13;87.18;98081.80;87222;1301;22735;-77
2022/12/09 07:14:05;;;;;;;236.30;58.90;;;;;;;-0.11;87.01;98083.48;87003;1291;98903;-76
2022/12/09 07:16:06;;;;;;;162.00;52.60;;;;;;;-0.06;86.79;98088.76;87455;1296;23755;-78
2022/12/09 07:18:07;;;;;;;184.90;58.20;;;;;;;-0.05;87.04;98088.55;87519;1310;23012;-76
2022/12/09 07:20:08;;;;;;;;;;;;;;;-0.03;87.10;98089.71;87076;1295;98581;-78
2022/12/09 07:22:09;;;;;;;180.70;55.60;;;;;;;0.02;87.26;98083.05;87265;1294;22482;-78
2022/12/09 07:24:14;;;;;;;;;;;;;;;0.07;87.18;98076.71;87558;1303;22805;-78
2022/12/09 07:26:15;;;;;;;110.50;52.70;;;;;;;0.11;86.99;98064.73;87435;1310;84354;-79
2022/12/09 07:28:16;;;;;;;99.50;53.40;;;;;;;0.16;87.14;98054.96;87450;1316;22511;-79
2022/12/09 07:30:18;;;;;;;96.00;51.80;;;;;;;0.21;87.18;98050.36;87162;1299;25036;-79
2022/12/09 07:32:19;;;;;;;88.50;48.60;;;;;;;0.25;87.15;98051.31;87323;1290;98779;-78
2022/12/09 07:34:20;;;;;;;87.10;48.90;;;;;;;0.28;87.16;98047.95;87418;1287;25290;-79
2022/12/09 07:36:22;;;;;;;90.90;50.40;;;;;;;0.32;87.19;98041.14;87354;1302;22491;-77
2022/12/09 07:38:25;;;;;;;88.10;49.10;;;;;;;0.33;87.24;98040.07;87178;1296;22632;-78
2022/12/09 07:40:28;;;;;;;90.00;50.10;;;;;;;0.36;87.29;98037.61;87225;1295;99000;-78
2022/12/09 07:42:29;;;;;;;84.10;50.50;;;;;;;0.37;87.16;98032.90;87128;1290;23036;-78
2022/12/09 07:44:30;;;;;;;85.20;49.20;;;;;;;0.40;86.97;98038.02;87132;1306;22421;-78
2022/12/09 07:46:31;;;;;;;84.40;49.30;;;;;;;0.43;87.33;98034.85;87131;1296;22552;-78
2022/12/09 07:48:33;;;;;;;87.70;48.30;;;;;;;0.45;86.95;98034.61;87063;1317;23911;-79
2022/12/09 07:50:34;;;;;;;77.30;45.50;;;;;;;0.47;87.24;98035.80;87236;1297;98370;-78
2022/12/09 07:52:35;;;;;;;80.30;45.70;;;;;;;0.50;87.01;98035.39;87241;1313;22440;-78
2022/12/09 07:54:37;;;;;;;89.70;47.60;;;;;;;0.53;87.27;98036.88;87378;1294;22611;-78
2022/12/09 07:56:38;;;;;;;82.70;45.80;;;;;;;0.54;87.44;98034.08;86989;1288;98522;-77
2022/12/09 07:58:41;;;;;;;78.90;47.00;;;;;;;0.56;87.04;98033.02;87104;1312;22747;-78
2022/12/09 08:00:42;;;;;;;92.90;49.50;;;;;;;0.58;87.19;98035.05;87572;1289;22469;-76
2022/12/09 08:02:43;;;;;;;91.30;52.20;;;;;;;0.60;87.21;98032.05;87059;1311;99548;-77
2022/12/09 08:04:43;;;;;;;102.70;54.10;;;;;;;0.62;87.05;98030.44;87047;1295;23331;-77
2022/12/09 08:06:45;;;;;;;99.40;55.90;;;;;;;0.65;87.07;98036.08;87094;1296;22861;-77
2022/12/09 08:08:46;;;;;;;103.70;56.10;;;;;;;0.68;87.05;98040.16;87031;1297;98432;-78
2022/12/09 08:10:48;;;;;;;98.20;54.00;;;;;;;0.71;87.21;98044.76;86910;1296;22890;-78
2022/12/09 08:12:49;;;;;;;104.40;56.00;;;;;;;0.74;87.18;98046.08;87171;1313;22948;-78
2022/12/09 08:14:50;;;;;;;93.70;53.80;;;;;;;0.76;87.09;98045.67;87296;1296;99738;-76
2022/12/09 08:16:51;;;;;;;93.40;53.20;;;;;;;0.79;87.11;98045.42;87073;1290;24670;-76
2022/12/09 08:18:54;;;;;;;85.00;50.60;;;;;;;0.82;87.32;98050.70;87265;1310;22490;-77
2022/12/09 08:20:55;;;;;;;91.50;52.40;;;;;;;0.81;87.02;98044.16;87161;1312;99558;-78
2022/12/09 08:22:57;;;;;;;98.20;54.50;;;;;;;0.86;87.09;98052.02;87332;1295;22539;-77
2022/12/09 08:25:00;;;;;;;88.30;51.60;;;;;;;0.88;87.17;98054.55;87298;1299;22517;-76
2022/12/09 08:27:01;;;;;;;87.70;50.80;;;;;;;0.90;87.14;98053.48;87095;1296;98233;-76
2022/12/09 08:29:05;;;;;;;;;;;;;;;0.93;87.14;98051.31;87086;1298;24284;-77
2022/12/09 08:31:08;;;;;;;92.70;51.70;;;;;;;0.97;86.73;98053.65;87065;1296;22521;-76
2022/12/09 08:33:09;;;;;;;98.10;53.40;;;;;;;1.00;86.92;98052.36;87087;1311;98244;-75
2022/12/09 08:35:13;;;;;;;103.40;53.40;;;;;;;1.01;87.18;98052.34;87152;1296;24284;-77
2022/12/09 08:37:14;;;;;;;99.90;55.40;;;;;;;1.02;86.95;98058.02;87149;1296;22538;-75
2022/12/09 08:39:15;;;;;;;101.80;55.10;;;;;;;1.06;86.88;98054.80;87106;1287;98533;-75
2022/12/09 08:41:20;;;;;;;102.80;58.80;;;;;;;1.10;87.02;98054.34;87143;1296;22518;-77
2022/12/09 08:43:21;;;;;;;97.70;57.50;;;;;;;1.18;87.13;98053.99;87254;1296;23709;-76
2022/12/09 08:45:22;;;;;;;108.10;61.50;;;;;;;1.29;87.23;98055.95;87458;1292;98430;-77
2022/12/09 08:47:23;;;;;;;115.50;60.10;;;;;;;1.41;87.26;98059.81;86993;1292;23052;-76
2022/12/09 08:49:26;;;;;;;82.30;61.40;;;;;;;1.53;87.37;98051.19;86667;1287;25400;-76
2022/12/09 08:51:28;;;;;;;110.10;63.40;;;;;;;1.63;87.49;98050.39;86670;1281;99698;-76
2022/12/09 08:53:31;;;;;;;100.70;60.00;;;;;;;1.66;87.10;98046.33;86729;1296;26087;-79
2022/12/09 08:55:33;;;;;;;99.20;58.70;;;;;;;1.71;86.86;98046.90;86867;1295;22546;-77
2022/12/09 08:57:35;;;;;;;111.60;61.40;;;;;;;1.75;87.06;98045.76;86828;1296;99653;-78
2022/12/09 08:59:36;;;;;;;115.90;61.90;;;;;;;1.79;87.31;98044.59;86904;1295;23884;-78
2022/12/09 09:01:37;;;;;;;107.50;60.30;;;;;;;1.89;87.19;98048.13;86739;1295;22509;-78
2022/12/09 09:03:38;;;;;;;;;;;;;;;1.98;87.14;98041.48;86818;1295;98486;-80
2022/12/09 09:05:39;;;;;;;123.10;64.70;;;;;;;2.05;86.95;98037.63;86999;1288;22458;-80
2022/12/09 09:07:40;;;;;;;127.10;65.10;;;;;;;2.13;87.02;98034.11;86851;1296;24295;-80
2022/12/09 09:09:41;;;;;;;160.10;83.40;;;;;;;2.19;87.20;98033.23;86816;1309;98402;-79
2022/12/09 09:11:42;;;;;;;141.00;72.00;;;;;;;2.25;87.01;98030.10;86863;1295;22746;-78
2022/12/09 09:13:46;;;;;;;124.40;68.40;;;;;;;2.30;87.08;98024.42;86963;1287;25938;-80
2022/12/09 09:15:47;;;;;;;103.50;58.50;;;;;;;2.35;86.74;98019.94;86965;1296;98716;-80
2022/12/09 09:17:50;;;;;;;;;;;;;;;2.41;86.69;98031.71;86989;1289;22496;-79
2022/12/09 09:19:51;;;;;;;104.60;54.90;;;;;;;2.43;86.44;98027.13;86864;1313;22791;-79
2022/12/09 09:21:54;;;;;;;92.40;55.00;;;;;;;2.47;86.43;98023.91;86797;1290;99868;-79
2022/12/09 09:23:55;;;;;;;98.50;56.90;;;;;;;2.51;86.61;98024.45;86946;1287;22556;-78
2022/12/09 09:25:55;;;;;;;102.70;58.90;;;;;;;2.55;86.52;98027.13;86980;1287;24495;-78
2022/12/09 09:27:56;;;;;;;101.10;58.90;;;;;;;2.58;86.50;98025.13;86878;1296;98967;-78
2022/12/09 09:29:57;;;;;;;97.10;55.40;;;;;;;2.62;86.28;98023.09;86833;1298;22570;-79
2022/12/09 09:31:58;;;;;;;94.90;57.40;;;;;;;2.68;86.46;98029.68;87143;1299;22701;-77
2022/12/09 09:33:59;;;;;;;90.90;55.90;;;;;;;2.73;86.50;98028.46;86873;1290;98214;-77